Farmersville's Hourly Summary for Thursday, July 5, 2018
Hour Temp
(f)
RH
(%)
Solar Rad.
(MJ/m2)
Rainfall
(in)
Wind
(mph)
7/5/2018 12:00 AM 79 70 0 0 0.7
7/5/2018 1:00 AM 77 76 0 0 0.01
7/5/2018 2:00 AM 75 80 0 0 0
7/5/2018 3:00 AM 74 83 0 0 0
7/5/2018 4:00 AM 73 87 0 0 0
7/5/2018 5:00 AM 72 89 0 0 0
7/5/2018 6:00 AM 71 100 0 0 0
7/5/2018 7:00 AM 71 100 0.03 0 0
7/5/2018 8:00 AM 74 84 0.38 0 0
7/5/2018 9:00 AM 81 66 1.04 0 0.09
7/5/2018 10:00 AM 84 61 1.54 0 0.38
7/5/2018 11:00 AM 86 56 2.09 0 0.99
7/5/2018 12:00 PM 90 47 2.54 0 1.26
7/5/2018 1:00 PM 93 43 2.5 0 1.37
7/5/2018 2:00 PM 95 41 2.03 0 1.03
7/5/2018 3:00 PM 91 44 0.92 0.01 1.26
7/5/2018 4:00 PM 89 47 2.15 0 0.46
7/5/2018 5:00 PM 98 38 2.33 0 0.98
7/5/2018 6:00 PM 94 37 0.87 0.03 1.26
7/5/2018 7:00 PM 84 65 0.42 0 0.3
7/5/2018 8:00 PM 85 64 0.29 0 0.04
7/5/2018 9:00 PM 84 66 0.04 0 0.02
7/5/2018 10:00 PM 83 65 0 0 0.33
7/5/2018 11:00 PM 81 67 0 0 0.01
Data Summary 82 65 19.17 0.04 0.44